createdAt,value
2022-11-19T00:04:07.803Z,14.47
2022-11-19T00:08:10.518Z,13.97
2022-11-19T00:12:38.912Z,13.57
2022-11-19T00:16:41.464Z,15.70
2022-11-19T00:20:43.550Z,14.90
2022-11-19T00:24:45.642Z,17.07
2022-11-19T00:28:47.485Z,16.23
2022-11-19T00:32:51.593Z,17.63
2022-11-19T00:37:17.194Z,15.07
2022-11-19T00:41:19.271Z,15.80
2022-11-19T00:45:21.200Z,16.20
2022-11-19T00:49:24.238Z,16.23
2022-11-19T00:53:45.858Z,16.83
2022-11-19T00:57:47.852Z,17.13
2022-11-19T01:01:49.868Z,18.47
2022-11-19T01:06:19.817Z,18.07
2022-11-19T01:10:28.167Z,18.80
2022-11-19T01:14:31.233Z,18.67
2022-11-19T01:18:33.176Z,18.17
2022-11-19T01:22:35.074Z,19.07
2022-11-19T01:26:41.656Z,17.87
2022-11-19T01:31:13.800Z,18.37
2022-11-19T01:35:15.796Z,19.13
2022-11-19T01:39:18.290Z,19.60
2022-11-19T01:43:40.742Z,18.90
2022-11-19T01:47:44.952Z,17.67
2022-11-19T01:51:46.736Z,20.70
2022-11-19T01:55:50.616Z,17.90
2022-11-19T01:59:52.999Z,18.90
2022-11-19T02:03:55.386Z,19.27
2022-11-19T02:08:39.561Z,17.50
2022-11-19T02:13:35.262Z,19.97
2022-11-19T02:18:08.475Z,20.80
2022-11-19T02:22:29.782Z,18.73
2022-11-19T02:27:10.095Z,19.93
2022-11-19T02:31:30.707Z,18.80
2022-11-19T02:35:48.647Z,18.77
2022-11-19T02:40:23.427Z,18.73
2022-11-19T02:45:00.837Z,19.23
2022-11-19T02:49:02.904Z,20.13
2022-11-19T02:53:05.520Z,20.20
2022-11-19T02:57:36.292Z,18.90
2022-11-19T03:06:54.705Z,19.77
2022-11-19T03:10:56.799Z,19.80
2022-11-19T03:15:45.344Z,18.63
2022-11-19T03:19:58.765Z,18.43
2022-11-19T03:24:12.821Z,17.77
2022-11-19T03:28:21.069Z,19.17
2022-11-19T03:32:54.124Z,20.23
2022-11-19T03:37:22.592Z,18.97
2022-11-19T03:41:51.218Z,17.70
2022-11-19T03:46:22.802Z,17.53
2022-11-19T03:50:29.726Z,18.37
2022-11-19T03:54:32.005Z,18.23
2022-11-19T03:59:11.316Z,19.57
2022-11-19T04:03:16.746Z,19.73
2022-11-19T04:07:32.217Z,19.67
2022-11-19T04:11:34.189Z,19.03
2022-11-19T04:15:37.145Z,19.07
2022-11-19T04:19:39.160Z,18.50
2022-11-19T04:23:41.003Z,20.50
2022-11-19T04:27:45.913Z,17.83
2022-11-19T04:31:48.007Z,18.40
2022-11-19T04:35:49.932Z,17.37
2022-11-19T04:40:24.105Z,20.50
2022-11-19T04:44:27.093Z,19.50
2022-11-19T04:48:28.892Z,20.13
2022-11-19T04:53:33.582Z,19.60
2022-11-19T04:57:35.536Z,18.43
2022-11-19T05:01:37.487Z,19.37
2022-11-19T05:05:39.468Z,18.90
2022-11-19T05:09:41.370Z,17.67
2022-11-19T05:13:43.306Z,19.33
2022-11-19T05:17:45.483Z,23.50
2022-11-19T05:21:50.727Z,21.40
2022-11-19T05:25:52.948Z,20.77
2022-11-19T05:30:45.131Z,19.93
2022-11-19T05:34:48.575Z,22.37
2022-11-19T05:38:53.687Z,20.30
2022-11-19T05:43:49.414Z,19.90
2022-11-19T05:48:50.408Z,19.10
2022-11-19T05:52:54.546Z,17.67
2022-11-19T05:56:56.576Z,18.20
2022-11-19T06:00:59.457Z,18.57
2022-11-19T06:05:01.664Z,17.70
2022-11-19T06:09:04.073Z,17.03
2022-11-19T06:13:05.969Z,18.13
2022-11-19T06:17:10.238Z,16.87
2022-11-19T06:21:12.540Z,18.37
2022-11-19T06:25:14.473Z,18.27
2022-11-19T06:29:18.681Z,19.50
2022-11-19T06:33:24.418Z,17.17
2022-11-19T06:38:23.587Z,18.07
2022-11-19T06:42:38.591Z,18.00
2022-11-19T06:46:54.820Z,15.77
2022-11-19T06:51:50.292Z,15.13
2022-11-19T06:56:45.409Z,13.77
2022-11-19T07:00:51.015Z,12.73
2022-11-19T07:04:56.500Z,12.07
2022-11-19T07:08:58.349Z,12.60
2022-11-19T07:13:01.188Z,11.70
2022-11-19T07:17:08.711Z,12.27
2022-11-19T07:21:10.754Z,11.77
2022-11-19T07:25:40.553Z,10.93
2022-11-19T07:29:48.527Z,11.00
2022-11-19T07:34:19.642Z,11.50
2022-11-19T07:38:53.304Z,12.70
2022-11-19T07:42:55.180Z,12.60
2022-11-19T07:47:16.558Z,14.10
2022-11-19T07:51:24.080Z,12.63
2022-11-19T07:55:37.462Z,12.27
2022-11-19T08:00:05.348Z,14.07
2022-11-19T08:04:14.383Z,13.63
2022-11-19T08:08:16.248Z,12.57
2022-11-19T08:12:18.104Z,13.03
2022-11-19T08:17:32.195Z,13.00
2022-11-19T08:21:39.680Z,12.10
2022-11-19T08:26:32.204Z,12.83
2022-11-19T08:30:41.156Z,12.10
2022-11-19T08:35:00.424Z,12.50
2022-11-19T08:39:06.905Z,13.37
2022-11-19T08:43:24.333Z,14.43
2022-11-19T08:47:27.495Z,11.93
2022-11-19T08:51:54.700Z,13.17
2022-11-19T08:56:25.561Z,12.90
2022-11-19T09:00:55.974Z,13.77
2022-11-19T09:04:57.762Z,12.73
2022-11-19T09:09:01.359Z,12.83
2022-11-19T09:13:03.709Z,11.03
2022-11-19T09:17:05.619Z,10.03
2022-11-19T09:21:08.959Z,9.37
2022-11-19T09:25:11.011Z,10.67
2022-11-19T09:29:14.211Z,11.73
2022-11-19T09:33:20.302Z,12.10
2022-11-19T09:37:24.362Z,10.50
2022-11-19T09:41:51.964Z,11.43
2022-11-19T09:46:22.416Z,10.63
2022-11-19T09:50:29.638Z,11.93
2022-11-19T09:54:46.712Z,9.53
2022-11-19T09:58:49.878Z,10.47
2022-11-19T10:02:57.335Z,7.17
2022-11-19T10:13:23.734Z,11.03
2022-11-19T10:17:54.131Z,10.87
2022-11-19T10:22:45.379Z,10.80
2022-11-19T10:27:48.415Z,9.87
2022-11-19T10:32:30.227Z,10.13
2022-11-19T10:36:42.091Z,9.97
2022-11-19T10:41:02.073Z,9.10
2022-11-19T10:45:18.326Z,9.70
2022-11-19T10:49:21.625Z,9.33
2022-11-19T10:53:29.338Z,8.63
2022-11-19T10:57:33.258Z,9.30
2022-11-19T11:01:44.610Z,8.27
2022-11-19T11:06:45.286Z,8.47
2022-11-19T11:10:47.455Z,9.10
2022-11-19T11:14:55.738Z,9.97
2022-11-19T11:18:59.011Z,11.03
2022-11-19T11:23:10.531Z,8.33
2022-11-19T11:28:06.214Z,9.13
2022-11-19T11:32:27.553Z,11.43
2022-11-19T11:36:35.458Z,9.03
2022-11-19T11:40:40.746Z,10.27
2022-11-19T11:44:54.407Z,8.50
2022-11-19T11:49:04.729Z,9.10
2022-11-19T11:53:43.094Z,9.40
2022-11-19T11:57:55.163Z,11.03
2022-11-19T12:02:08.513Z,8.77
2022-11-19T12:06:16.909Z,9.23
2022-11-19T12:11:14.094Z,8.60
2022-11-19T12:16:18.847Z,10.37
2022-11-19T12:20:34.059Z,10.13
2022-11-19T12:24:55.666Z,9.23
2022-11-19T12:29:18.192Z,9.00
2022-11-19T12:33:36.215Z,8.73
2022-11-19T12:37:49.238Z,10.37
2022-11-19T12:41:59.145Z,10.20
2022-11-19T12:47:05.387Z,9.20
2022-11-19T12:51:12.936Z,9.00
2022-11-19T13:00:24.048Z,10.70
2022-11-19T13:05:29.140Z,9.77
2022-11-19T13:09:41.003Z,9.47
2022-11-19T13:14:15.344Z,9.40
2022-11-19T13:18:40.189Z,9.63
2022-11-19T13:23:07.196Z,9.53
2022-11-19T13:27:20.165Z,8.40
2022-11-19T13:31:27.551Z,10.10
2022-11-19T13:36:05.310Z,10.03
2022-11-19T13:40:21.033Z,9.03
2022-11-19T13:44:41.175Z,10.47
2022-11-19T13:48:49.457Z,10.87
2022-11-19T13:52:54.938Z,11.37
2022-11-19T13:58:04.086Z,11.80
2022-11-19T14:02:35.209Z,11.63
2022-11-19T14:06:50.870Z,14.57
2022-11-19T14:11:21.805Z,14.50
2022-11-19T14:16:08.509Z,16.73
2022-11-19T14:20:56.005Z,14.63
2022-11-19T14:25:18.908Z,11.23
2022-11-19T14:29:27.508Z,15.73
2022-11-19T14:34:00.014Z,14.17
2022-11-19T14:38:30.774Z,13.47
2022-11-19T14:42:32.759Z,13.00
2022-11-19T14:46:44.866Z,11.97
2022-11-19T14:51:07.413Z,13.40
2022-11-19T15:00:48.164Z,12.90
2022-11-19T15:05:05.735Z,13.97
2022-11-19T15:09:11.833Z,12.87
2022-11-19T15:13:41.876Z,11.67
2022-11-19T15:18:41.679Z,10.73
2022-11-19T15:23:07.603Z,11.37
2022-11-19T15:27:21.963Z,12.23
2022-11-19T15:32:02.813Z,11.53
2022-11-19T15:36:26.377Z,11.60
2022-11-19T15:41:00.156Z,12.63
2022-11-19T15:45:30.388Z,12.63
2022-11-19T15:49:36.211Z,10.60
2022-11-19T15:53:38.420Z,10.97
2022-11-19T15:58:36.396Z,12.23
2022-11-19T16:02:43.912Z,12.80
2022-11-19T16:06:53.108Z,13.80
2022-11-19T16:11:20.252Z,12.90
2022-11-19T16:15:44.632Z,13.37
2022-11-19T16:20:11.784Z,14.57
2022-11-19T16:24:39.145Z,12.23
2022-11-19T16:29:15.359Z,12.70
2022-11-19T16:33:27.785Z,12.33
2022-11-19T16:37:29.752Z,13.67
2022-11-19T16:41:50.310Z,13.63
2022-11-19T16:45:56.711Z,13.50
2022-11-19T16:50:32.193Z,13.67
2022-11-19T16:54:50.597Z,14.90
2022-11-19T16:58:57.296Z,13.00
2022-11-19T17:03:02.905Z,13.27
2022-11-19T17:07:14.649Z,15.43
2022-11-19T17:11:42.408Z,12.53
2022-11-19T17:15:48.424Z,13.63
2022-11-19T17:19:50.308Z,14.07
2022-11-19T17:23:52.559Z,14.17
2022-11-19T17:28:03.869Z,13.60
2022-11-19T17:32:05.903Z,12.20
2022-11-19T17:36:13.805Z,12.40
2022-11-19T17:40:15.738Z,12.33
2022-11-19T17:44:42.659Z,12.93
2022-11-19T17:48:47.855Z,14.57
2022-11-19T17:52:55.377Z,13.60
2022-11-19T17:56:57.244Z,12.63
2022-11-19T18:00:59.166Z,13.90
2022-11-19T18:05:01.034Z,13.80
2022-11-19T18:09:03.624Z,14.73
2022-11-19T18:13:06.208Z,17.63
2022-11-19T18:17:35.271Z,15.80
2022-11-19T18:21:49.553Z,15.20
2022-11-19T18:25:52.635Z,15.97
2022-11-19T18:29:55.711Z,17.70
2022-11-19T18:34:47.956Z,17.50
2022-11-19T18:38:55.735Z,14.47
2022-11-19T18:43:16.184Z,15.57
2022-11-19T18:47:23.431Z,17.27
2022-11-19T18:51:27.638Z,15.70
2022-11-19T18:55:30.748Z,17.47
2022-11-19T18:59:32.627Z,16.60
2022-11-19T19:03:35.403Z,18.43
2022-11-19T19:07:42.778Z,16.67
2022-11-19T19:12:17.666Z,17.77
2022-11-19T19:16:39.101Z,16.27
2022-11-19T19:20:45.337Z,17.00
2022-11-19T19:24:47.303Z,17.23
2022-11-19T19:28:53.869Z,17.93
2022-11-19T19:33:59.106Z,19.60
2022-11-19T19:38:01.068Z,19.03
2022-11-19T19:43:06.460Z,16.50
2022-11-19T19:47:33.857Z,20.13
2022-11-19T19:51:42.098Z,20.27
2022-11-19T19:55:44.087Z,18.83
2022-11-19T19:59:48.314Z,17.50
2022-11-19T20:03:54.510Z,17.00
2022-11-19T20:08:09.253Z,21.13
2022-11-19T20:12:56.783Z,19.43
2022-11-19T20:16:58.839Z,20.90
2022-11-19T20:21:01.310Z,19.93
2022-11-19T20:25:17.052Z,18.37
2022-11-19T20:29:22.007Z,18.87
2022-11-19T20:33:38.312Z,24.73
2022-11-19T20:37:41.836Z,19.13
2022-11-19T20:46:28.378Z,20.80
2022-11-19T20:50:30.310Z,19.23
2022-11-19T20:54:39.512Z,20.27
2022-11-19T20:58:44.223Z,20.60
2022-11-19T21:02:54.388Z,21.10
2022-11-19T21:06:56.415Z,18.33
2022-11-19T21:11:01.932Z,18.97
2022-11-19T21:15:29.623Z,17.03
2022-11-19T21:19:44.027Z,19.80
2022-11-19T21:23:46.024Z,19.97
2022-11-19T21:27:53.780Z,17.57
2022-11-19T21:31:55.777Z,18.67
2022-11-19T21:35:59.245Z,17.67
2022-11-19T21:40:02.396Z,19.07
2022-11-19T21:44:07.193Z,20.97
2022-11-19T21:48:09.458Z,18.20
2022-11-19T21:52:15.624Z,17.13
2022-11-19T21:56:19.804Z,20.47
2022-11-19T22:00:21.815Z,16.37
2022-11-19T22:04:23.987Z,18.63
2022-11-19T22:08:41.086Z,16.87
2022-11-19T22:12:43.412Z,19.40
2022-11-19T22:16:45.315Z,17.00
2022-11-19T22:20:47.492Z,20.00
2022-11-19T22:24:50.559Z,18.77
2022-11-19T22:29:20.095Z,17.67
2022-11-19T22:33:23.203Z,16.93
2022-11-19T22:37:27.354Z,20.13
2022-11-19T22:41:45.564Z,17.57
2022-11-19T22:45:52.262Z,18.67
2022-11-19T22:49:54.270Z,18.73
2022-11-19T22:53:56.431Z,20.57
2022-11-19T22:57:58.388Z,22.30
2022-11-19T23:02:25.821Z,20.80
2022-11-19T23:06:28.512Z,19.47
2022-11-19T23:10:30.508Z,20.70
2022-11-19T23:14:32.371Z,17.13
2022-11-19T23:18:37.466Z,17.87
2022-11-19T23:22:45.622Z,16.60
2022-11-19T23:26:47.550Z,18.60
2022-11-19T23:30:50.698Z,20.57
2022-11-19T23:34:53.749Z,18.13
2022-11-19T23:38:55.714Z,19.33
2022-11-19T23:42:57.553Z,21.13
2022-11-19T23:47:11.933Z,18.03
2022-11-19T23:51:16.390Z,22.27
2022-11-19T23:55:18.300Z,22.57
2022-11-19T23:59:25.325Z,23.80
